sensor_id;sensor_type;location;lat;lon;timestamp;P1;P2;P0
45112;PMS5003;30873;53.908;27.576;2023-07-08T00:03:01;10.4;9.4;7
45112;PMS5003;30873;53.908;27.576;2023-07-08T00:07:27;9.3;8.7;6
45112;PMS5003;30873;53.908;27.576;2023-07-08T00:12:04;9.5;9;6.2
45112;PMS5003;30873;53.908;27.576;2023-07-08T00:18:08;9;8.1;5.8
45112;PMS5003;30873;53.908;27.576;2023-07-08T00:22:25;11;9.7;6.6
45112;PMS5003;30873;53.908;27.576;2023-07-08T00:27:03;9.4;8.6;6.3
45112;PMS5003;30873;53.908;27.576;2023-07-08T00:32:45;9;8.3;5.8
45112;PMS5003;30873;53.908;27.576;2023-07-08T00:37:45;8.8;7.9;5.1
45112;PMS5003;30873;53.908;27.576;2023-07-08T00:42:06;9.1;8;5.9
45112;PMS5003;30873;53.908;27.576;2023-07-08T00:47:12;8.4;7.9;5.1
45112;PMS5003;30873;53.908;27.576;2023-07-08T00:52:44;8.7;7.9;5.1
45112;PMS5003;30873;53.908;27.576;2023-07-08T00:57:47;8.2;7.5;4.5
45112;PMS5003;30873;53.908;27.576;2023-07-08T01:03:03;8.8;8.2;5.8
45112;PMS5003;30873;53.908;27.576;2023-07-08T01:07:25;8.9;7.5;5.2
45112;PMS5003;30873;53.908;27.576;2023-07-08T01:13:04;9.1;8;5.1
45112;PMS5003;30873;53.908;27.576;2023-07-08T01:17:04;9.1;8.1;5.4
45112;PMS5003;30873;53.908;27.576;2023-07-08T01:23:03;8.5;8;5.9
45112;PMS5003;30873;53.908;27.576;2023-07-08T01:27:45;8.3;7.6;4.8
45112;PMS5003;30873;53.908;27.576;2023-07-08T01:32:48;8.1;7.2;4.8
45112;PMS5003;30873;53.908;27.576;2023-07-08T01:37:36;8.6;7;4.5
45112;PMS5003;30873;53.908;27.576;2023-07-08T01:42:19;8.6;7.2;4.8
45112;PMS5003;30873;53.908;27.576;2023-07-08T01:47:05;8.3;7.2;4.7
45112;PMS5003;30873;53.908;27.576;2023-07-08T01:52:29;7.2;6.8;4.1
45112;PMS5003;30873;53.908;27.576;2023-07-08T01:57:45;8.3;7.3;4.6
45112;PMS5003;30873;53.908;27.576;2023-07-08T02:02:24;8.3;7.4;4.3
45112;PMS5003;30873;53.908;27.576;2023-07-08T02:08:01;8.5;7.7;4.8
45112;PMS5003;30873;53.908;27.576;2023-07-08T02:13:02;8.3;7.1;4.8
45112;PMS5003;30873;53.908;27.576;2023-07-08T02:17:41;7.3;6.8;4.4
45112;PMS5003;30873;53.908;27.576;2023-07-08T02:22:25;7.5;6.3;4.2
45112;PMS5003;30873;53.908;27.576;2023-07-08T02:27:22;8.1;6.4;4.3
45112;PMS5003;30873;53.908;27.576;2023-07-08T02:32:47;7.9;6.1;4.3
45112;PMS5003;30873;53.908;27.576;2023-07-08T02:37:45;7.6;6.8;4.4
45112;PMS5003;30873;53.908;27.576;2023-07-08T02:42:30;7.7;6.8;4.4
45112;PMS5003;30873;53.908;27.576;2023-07-08T02:48:04;8.5;7.5;4.4
45112;PMS5003;30873;53.908;27.576;2023-07-08T02:53:01;8.3;7.2;4.4
45112;PMS5003;30873;53.908;27.576;2023-07-08T02:57:04;8.9;7.2;4.6
45112;PMS5003;30873;53.908;27.576;2023-07-08T03:02:03;7.6;6.8;4.8
45112;PMS5003;30873;53.908;27.576;2023-07-08T03:07:45;7.6;6;4.1
45112;PMS5003;30873;53.908;27.576;2023-07-08T03:12:45;6.7;6.3;4
45112;PMS5003;30873;53.908;27.576;2023-07-08T03:17:28;7.9;6.5;4.1
45112;PMS5003;30873;53.908;27.576;2023-07-08T03:23:01;7.4;6.6;4.6
45112;PMS5003;30873;53.908;27.576;2023-07-08T03:27:29;7;6.5;4.1
45112;PMS5003;30873;53.908;27.576;2023-07-08T03:32:04;7.3;6.5;4
45112;PMS5003;30873;53.908;27.576;2023-07-08T03:37:26;7.5;6.6;4
45112;PMS5003;30873;53.908;27.576;2023-07-08T03:43:04;7.9;6.7;4.1
45112;PMS5003;30873;53.908;27.576;2023-07-08T03:47:24;7.2;6.6;4.1
45112;PMS5003;30873;53.908;27.576;2023-07-08T03:53:02;6.7;6;3.7
45112;PMS5003;30873;53.908;27.576;2023-07-08T03:57:42;7.3;6.1;3.9
45112;PMS5003;30873;53.908;27.576;2023-07-08T04:02:26;6.9;5.7;3.9
45112;PMS5003;30873;53.908;27.576;2023-07-08T04:07:12;6.5;5.7;3.7
45112;PMS5003;30873;53.908;27.576;2023-07-08T04:12:42;6;5.3;3.9
45112;PMS5003;30873;53.908;27.576;2023-07-08T04:17:22;7.1;5.3;3.7
45112;PMS5003;30873;53.908;27.576;2023-07-08T04:22:46;5.9;5.1;3.4
45112;PMS5003;30873;53.908;27.576;2023-07-08T04:28:04;5.1;4.7;3.5
45112;PMS5003;30873;53.908;27.576;2023-07-08T04:32:20;6.1;5.4;3.7
45112;PMS5003;30873;53.908;27.576;2023-07-08T04:37:12;4.6;4;3
45112;PMS5003;30873;53.908;27.576;2023-07-08T04:43:02;6.8;5.4;3.3
45112;PMS5003;30873;53.908;27.576;2023-07-08T04:47:18;6.2;5.3;3.7
45112;PMS5003;30873;53.908;27.576;2023-07-08T04:52:12;5.6;4.8;3.6
45112;PMS5003;30873;53.908;27.576;2023-07-08T04:57:04;5.2;4.8;3.2
45112;PMS5003;30873;53.908;27.576;2023-07-08T05:03:02;5.2;4.7;3.7
45112;PMS5003;30873;53.908;27.576;2023-07-08T05:07:12;4.8;4.4;3.2
45112;PMS5003;30873;53.908;27.576;2023-07-08T05:12:12;4.9;4.7;3.4
45112;PMS5003;30873;53.908;27.576;2023-07-08T05:17:42;3.9;3.9;2.7
45112;PMS5003;30873;53.908;27.576;2023-07-08T05:22:06;4.3;3.9;2.8
45112;PMS5003;30873;53.908;27.576;2023-07-08T05:28:04;5.1;4.3;3
45112;PMS5003;30873;53.908;27.576;2023-07-08T05:32:26;4.3;4;2.9
45112;PMS5003;30873;53.908;27.576;2023-07-08T05:38:02;4.3;3.9;2.6
45112;PMS5003;30873;53.908;27.576;2023-07-08T05:42:30;5.1;4.9;3.3
45112;PMS5003;30873;53.908;27.576;2023-07-08T05:48:04;6.8;6.4;4.7
45112;PMS5003;30873;53.908;27.576;2023-07-08T05:52:34;34;32.1;26.7
45112;PMS5003;30873;53.908;27.576;2023-07-08T05:57:14;27.2;26.3;22.8
45112;PMS5003;30873;53.908;27.576;2023-07-08T06:02:06;20.9;20.4;18.6
45112;PMS5003;30873;53.908;27.576;2023-07-08T06:07:42;20.7;20.5;17.9
45112;PMS5003;30873;53.908;27.576;2023-07-08T06:12:18;32.5;31.4;26.9
45112;PMS5003;30873;53.908;27.576;2023-07-08T06:17:30;13.5;13.4;11.8
45112;PMS5003;30873;53.908;27.576;2023-07-08T06:23:04;9.8;9.4;7.6
45112;PMS5003;30873;53.908;27.576;2023-07-08T06:27:26;6.9;6.3;5
45112;PMS5003;30873;53.908;27.576;2023-07-08T06:33:04;5.1;4.7;3.9
45112;PMS5003;30873;53.908;27.576;2023-07-08T06:38:02;3.5;2.9;2
45112;PMS5003;30873;53.908;27.576;2023-07-08T06:42:42;2.9;2.9;2
45112;PMS5003;30873;53.908;27.576;2023-07-08T06:47:18;3.8;3.4;2.1
45112;PMS5003;30873;53.908;27.576;2023-07-08T06:52:04;4.6;4;3
45112;PMS5003;30873;53.908;27.576;2023-07-08T06:58:02;3.8;2.9;2
45112;PMS5003;30873;53.908;27.576;2023-07-08T07:03:02;3.2;3;2.2
45112;PMS5003;30873;53.908;27.576;2023-07-08T07:07:30;3.2;2.7;1.9
45112;PMS5003;30873;53.908;27.576;2023-07-08T07:12:46;3;2.9;1.9
45112;PMS5003;30873;53.908;27.576;2023-07-08T07:17:44;3.7;3.3;2
45112;PMS5003;30873;53.908;27.576;2023-07-08T07:22:26;4.1;3.5;2.5
45112;PMS5003;30873;53.908;27.576;2023-07-08T07:27:26;3.4;3.3;2.2
45112;PMS5003;30873;53.908;27.576;2023-07-08T07:32:46;3.6;3.3;2.1
45112;PMS5003;30873;53.908;27.576;2023-07-08T07:38:02;2.8;2.6;1.7
45112;PMS5003;30873;53.908;27.576;2023-07-08T07:42:30;2.8;2.7;1.9
45112;PMS5003;30873;53.908;27.576;2023-07-08T07:47:24;4.3;4.1;2.9
45112;PMS5003;30873;53.908;27.576;2023-07-08T07:52:04;6.5;5.2;3.2
45112;PMS5003;30873;53.908;27.576;2023-07-08T07:57:04;6.2;5.8;4.3
45112;PMS5003;30873;53.908;27.576;2023-07-08T08:02:26;4.8;4.3;3.2
45112;PMS5003;30873;53.908;27.576;2023-07-08T08:08:02;5.4;4.8;3.4
45112;PMS5003;30873;53.908;27.576;2023-07-08T08:12:46;5.6;4.6;3.4
45112;PMS5003;30873;53.908;27.576;2023-07-08T08:18:02;5.4;4.8;3.1
45112;PMS5003;30873;53.908;27.576;2023-07-08T08:22:26;4.8;4.2;2.8
45112;PMS5003;30873;53.908;27.576;2023-07-08T08:27:04;3.9;3.7;2.9
45112;PMS5003;30873;53.908;27.576;2023-07-08T08:32:12;4;3.6;2.6
45112;PMS5003;30873;53.908;27.576;2023-07-08T08:37:26;3.8;3.6;2.4
45112;PMS5003;30873;53.908;27.576;2023-07-08T08:42:30;4.7;3.9;2.8
45112;PMS5003;30873;53.908;27.576;2023-07-08T08:47:47;3.7;3.6;2.4
45112;PMS5003;30873;53.908;27.576;2023-07-08T08:53:01;3.4;3.2;2.5
45112;PMS5003;30873;53.908;27.576;2023-07-08T08:57:06;3.5;3.2;2.2
45112;PMS5003;30873;53.908;27.576;2023-07-08T09:02:41;3.3;3;2.1
45112;PMS5003;30873;53.908;27.576;2023-07-08T09:08:04;3.9;3.6;2.4
45112;PMS5003;30873;53.908;27.576;2023-07-08T09:12:40;4;3.8;2.8
45112;PMS5003;30873;53.908;27.576;2023-07-08T09:17:46;4.7;3.8;2.4
45112;PMS5003;30873;53.908;27.576;2023-07-08T09:22:04;3.4;2.9;1.9
45112;PMS5003;30873;53.908;27.576;2023-07-08T09:28:02;3.8;3.3;2.3
45112;PMS5003;30873;53.908;27.576;2023-07-08T09:32:22;3.6;3.2;2.3
45112;PMS5003;30873;53.908;27.576;2023-07-08T09:37:26;3.3;3;2
45112;PMS5003;30873;53.908;27.576;2023-07-08T09:42:40;3.8;3.5;2.2
45112;PMS5003;30873;53.908;27.576;2023-07-08T09:47:38;3.4;2.9;2.1
45112;PMS5003;30873;53.908;27.576;2023-07-08T09:53:00;3.7;3.6;2.7
45112;PMS5003;30873;53.908;27.576;2023-07-08T09:57:26;3.8;3.3;2.3
45112;PMS5003;30873;53.908;27.576;2023-07-08T10:03:02;3.3;3;2.3
45112;PMS5003;30873;53.908;27.576;2023-07-08T10:07:44;4;3.8;2.4
45112;PMS5003;30873;53.908;27.576;2023-07-08T10:13:03;3.3;3;2
45112;PMS5003;30873;53.908;27.576;2023-07-08T10:17:42;3.3;3;2
45112;PMS5003;30873;53.908;27.576;2023-07-08T10:22:48;3.7;3.5;2.5
45112;PMS5003;30873;53.908;27.576;2023-07-08T10:27:47;5.6;4.9;3.9
45112;PMS5003;30873;53.908;27.576;2023-07-08T10:32:44;8.1;8.1;6.6
45112;PMS5003;30873;53.908;27.576;2023-07-08T10:37:05;5.6;5.3;4.4
45112;PMS5003;30873;53.908;27.576;2023-07-08T10:42:06;4.5;4.4;3
45112;PMS5003;30873;53.908;27.576;2023-07-08T10:48:06;2.9;2.7;1.6
45112;PMS5003;30873;53.908;27.576;2023-07-08T10:52:31;3.8;3.5;2.4
45112;PMS5003;30873;53.908;27.576;2023-07-08T10:59:06;3.6;3.2;2.3
45112;PMS5003;30873;53.908;27.576;2023-07-08T11:03:08;3.3;2.9;2
45112;PMS5003;30873;53.908;27.576;2023-07-08T11:07:43;3.3;2.9;2.1
45112;PMS5003;30873;53.908;27.576;2023-07-08T11:12:47;3.3;3.3;2.3
45112;PMS5003;30873;53.908;27.576;2023-07-08T11:17:29;3.6;3.1;2.1
45112;PMS5003;30873;53.908;27.576;2023-07-08T11:23:03;4;4;2.8
45112;PMS5003;30873;53.908;27.576;2023-07-08T11:27:46;3.2;3;2.4
45112;PMS5003;30873;53.908;27.576;2023-07-08T11:32:23;3.3;3.3;2.3
45112;PMS5003;30873;53.908;27.576;2023-07-08T11:38:02;3.4;3.2;2.4
45112;PMS5003;30873;53.908;27.576;2023-07-08T11:42:21;3.7;3.4;2.6
45112;PMS5003;30873;53.908;27.576;2023-07-08T11:47:31;4.1;3.3;2.6
45112;PMS5003;30873;53.908;27.576;2023-07-08T11:52:26;3.6;3.3;2.7
45112;PMS5003;30873;53.908;27.576;2023-07-08T11:57:46;3.6;3.4;2.7
45112;PMS5003;30873;53.908;27.576;2023-07-08T12:02:48;3.5;3.4;2.7
45112;PMS5003;30873;53.908;27.576;2023-07-08T12:07:30;4.7;4.5;3
45112;PMS5003;30873;53.908;27.576;2023-07-08T12:12:29;4;3.6;2.8
45112;PMS5003;30873;53.908;27.576;2023-07-08T12:17:46;3.3;3.3;2.5
45112;PMS5003;30873;53.908;27.576;2023-07-08T12:22:26;3.6;3.3;2.2
45112;PMS5003;30873;53.908;27.576;2023-07-08T12:27:26;2.7;2.6;1.9
45112;PMS5003;30873;53.908;27.576;2023-07-08T12:33:00;3.3;2.9;2
45112;PMS5003;30873;53.908;27.576;2023-07-08T12:37:44;3.1;2.7;1.9
45112;PMS5003;30873;53.908;27.576;2023-07-08T12:43:02;3;2.7;1.9
45112;PMS5003;30873;53.908;27.576;2023-07-08T12:47:26;3.3;3.3;2.3
45112;PMS5003;30873;53.908;27.576;2023-07-08T12:52:20;3.9;3.5;2.3
45112;PMS5003;30873;53.908;27.576;2023-07-08T12:57:42;3.3;3.1;2.3
45112;PMS5003;30873;53.908;27.576;2023-07-08T13:02:26;2.4;2.4;1.6
45112;PMS5003;30873;53.908;27.576;2023-07-08T13:07:31;3.1;2.9;1.6
45112;PMS5003;30873;53.908;27.576;2023-07-08T13:12:46;3.5;3.3;2.2
45112;PMS5003;30873;53.908;27.576;2023-07-08T13:17:46;3.9;3.7;2.5
45112;PMS5003;30873;53.908;27.576;2023-07-08T13:22:12;3.2;3;2.1
45112;PMS5003;30873;53.908;27.576;2023-07-08T13:27:53;3.1;2.5;1.7
45112;PMS5003;30873;53.908;27.576;2023-07-08T13:33:04;3.3;3.1;2.2
45112;PMS5003;30873;53.908;27.576;2023-07-08T13:38:02;3;2.6;2
45112;PMS5003;30873;53.908;27.576;2023-07-08T13:42:30;2.7;2.7;1.8
45112;PMS5003;30873;53.908;27.576;2023-07-08T13:47:20;4;4;2.8
45112;PMS5003;30873;53.908;27.576;2023-07-08T13:53:02;3.7;3.4;2.3
45112;PMS5003;30873;53.908;27.576;2023-07-08T13:57:08;3.1;2.9;2.2
45112;PMS5003;30873;53.908;27.576;2023-07-08T14:02:19;4.3;3.9;2.9
45112;PMS5003;30873;53.908;27.576;2023-07-08T14:07:42;4.7;3.9;3.2
45112;PMS5003;30873;53.908;27.576;2023-07-08T14:12:46;3.6;3.5;2.9
45112;PMS5003;30873;53.908;27.576;2023-07-08T14:18:02;5.8;5.2;4.2
45112;PMS5003;30873;53.908;27.576;2023-07-08T14:22:09;6.3;6;4.9
45112;PMS5003;30873;53.908;27.576;2023-07-08T14:28:02;5.7;5.3;4.1
45112;PMS5003;30873;53.908;27.576;2023-07-08T14:32:04;5.2;5;3.8
45112;PMS5003;30873;53.908;27.576;2023-07-08T14:38:02;7;6.5;4.6
45112;PMS5003;30873;53.908;27.576;2023-07-08T14:42:42;5.5;5.3;3.7
45112;PMS5003;30873;53.908;27.576;2023-07-08T14:47:46;4.7;4.7;3.4
45112;PMS5003;30873;53.908;27.576;2023-07-08T14:52:46;4.6;4;3.1
45112;PMS5003;30873;53.908;27.576;2023-07-08T14:57:43;13.5;12.8;11.3
45112;PMS5003;30873;53.908;27.576;2023-07-08T15:02:16;6.7;6.5;5.4
45112;PMS5003;30873;53.908;27.576;2023-07-08T15:08:02;4.8;4.6;3.4
45112;PMS5003;30873;53.908;27.576;2023-07-08T15:12:46;3.9;3.5;2.5
45112;PMS5003;30873;53.908;27.576;2023-07-08T15:17:26;2.8;2.4;1.7
45112;PMS5003;30873;53.908;27.576;2023-07-08T15:23:02;3.1;3;2
45112;PMS5003;30873;53.908;27.576;2023-07-08T15:27:45;3.5;3.5;2.7
45112;PMS5003;30873;53.908;27.576;2023-07-08T15:32:43;3.7;3.4;2.1
45112;PMS5003;30873;53.908;27.576;2023-07-08T15:37:24;3.1;2.9;2.2
45112;PMS5003;30873;53.908;27.576;2023-07-08T15:42:28;4;3.6;2.3
45112;PMS5003;30873;53.908;27.576;2023-07-08T15:48:02;3.1;2.8;2.1
45112;PMS5003;30873;53.908;27.576;2023-07-08T15:52:44;3;2.8;2.3
45112;PMS5003;30873;53.908;27.576;2023-07-08T15:57:28;4.3;3.6;2.6
45112;PMS5003;30873;53.908;27.576;2023-07-08T16:02:44;3.9;3.6;2.7
45112;PMS5003;30873;53.908;27.576;2023-07-08T16:08:02;3.7;3.5;2.4
45112;PMS5003;30873;53.908;27.576;2023-07-08T16:12:13;3.9;3.4;2.4
45112;PMS5003;30873;53.908;27.576;2023-07-08T16:17:07;3.8;3.4;2.4
45112;PMS5003;30873;53.908;27.576;2023-07-08T16:22:46;3.3;3.1;2.1
45112;PMS5003;30873;53.908;27.576;2023-07-08T16:27:47;3.6;3.1;2.3
45112;PMS5003;30873;53.908;27.576;2023-07-08T16:32:04;3.6;3.2;2.3
45112;PMS5003;30873;53.908;27.576;2023-07-08T16:37:04;4.3;3.6;2.3
45112;PMS5003;30873;53.908;27.576;2023-07-08T16:42:30;3.9;3.7;2.6
45112;PMS5003;30873;53.908;27.576;2023-07-08T16:47:26;4.3;3.9;3.1
45112;PMS5003;30873;53.908;27.576;2023-07-08T16:52:07;10.3;9.7;8.3
45112;PMS5003;30873;53.908;27.576;2023-07-08T16:58:02;74.5;71.9;69.5
45112;PMS5003;30873;53.908;27.576;2023-07-08T17:02:20;23.4;21.7;18.8
45112;PMS5003;30873;53.908;27.576;2023-07-08T17:08:02;4.2;3.7;2.5
45112;PMS5003;30873;53.908;27.576;2023-07-08T17:12:28;22;19.8;16.4
45112;PMS5003;30873;53.908;27.576;2023-07-08T17:17:46;14.4;14;9.8
45112;PMS5003;30873;53.908;27.576;2023-07-08T17:23:03;20.2;18.7;14.1
45112;PMS5003;30873;53.908;27.576;2023-07-08T17:27:26;31.2;27.9;23.6
45112;PMS5003;30873;53.908;27.576;2023-07-08T17:32:22;43.1;38.4;32.7
45112;PMS5003;30873;53.908;27.576;2023-07-08T17:37:14;20.5;20.2;18.1
45112;PMS5003;30873;53.908;27.576;2023-07-08T17:42:46;26;23.5;18.8
45112;PMS5003;30873;53.908;27.576;2023-07-08T17:47:19;52.2;48.6;44.1
45112;PMS5003;30873;53.908;27.576;2023-07-08T17:52:18;5.5;5.4;4.2
45112;PMS5003;30873;53.908;27.576;2023-07-08T17:58:02;4.4;4.1;3
45112;PMS5003;30873;53.908;27.576;2023-07-08T18:03:00;6.8;6;4.4
45112;PMS5003;30873;53.908;27.576;2023-07-08T18:07:30;5.4;5;3.4
45112;PMS5003;30873;53.908;27.576;2023-07-08T18:12:26;6;5.2;3.6
45112;PMS5003;30873;53.908;27.576;2023-07-08T18:18:02;5;4.7;3.4
45112;PMS5003;30873;53.908;27.576;2023-07-08T18:22:47;6;5;4.1
45112;PMS5003;30873;53.908;27.576;2023-07-08T18:27:12;5.4;5.2;3.8
45112;PMS5003;30873;53.908;27.576;2023-07-08T18:33:00;5.6;5.2;3.7
45112;PMS5003;30873;53.908;27.576;2023-07-08T18:37:32;7;6;4.3
45112;PMS5003;30873;53.908;27.576;2023-07-08T18:42:50;5.8;5.5;3.9
45112;PMS5003;30873;53.908;27.576;2023-07-08T18:47:26;6.8;6;4.6
45112;PMS5003;30873;53.908;27.576;2023-07-08T18:53:03;6.5;5.4;3.9
45112;PMS5003;30873;53.908;27.576;2023-07-08T18:57:30;6.4;5.9;4.7
45112;PMS5003;30873;53.908;27.576;2023-07-08T19:03:02;7.1;6.7;4.5
45112;PMS5003;30873;53.908;27.576;2023-07-08T19:07:42;8.6;8.2;6.2
45112;PMS5003;30873;53.908;27.576;2023-07-08T19:12:47;8.4;7.3;5.2
45112;PMS5003;30873;53.908;27.576;2023-07-08T19:17:44;8.4;8.1;5.4
45112;PMS5003;30873;53.908;27.576;2023-07-08T19:22:42;7.9;7.6;5.5
45112;PMS5003;30873;53.908;27.576;2023-07-08T19:27:26;8.5;7.7;5.7
45112;PMS5003;30873;53.908;27.576;2023-07-08T19:32:05;9.8;8.4;6.1
45112;PMS5003;30873;53.908;27.576;2023-07-08T19:38:04;9;8.3;6.2
45112;PMS5003;30873;53.908;27.576;2023-07-08T19:42:25;10.2;9.2;6.3
45112;PMS5003;30873;53.908;27.576;2023-07-08T19:48:00;9.1;8.3;6
45112;PMS5003;30873;53.908;27.576;2023-07-08T19:53:02;9.6;8.2;5.9
45112;PMS5003;30873;53.908;27.576;2023-07-08T19:57:43;9.2;8;5.7
45112;PMS5003;30873;53.908;27.576;2023-07-08T20:02:12;10.3;9.1;6.6
45112;PMS5003;30873;53.908;27.576;2023-07-08T20:07:07;10.8;9.5;6.7
45112;PMS5003;30873;53.908;27.576;2023-07-08T20:13:02;9.2;8.7;6.5
45112;PMS5003;30873;53.908;27.576;2023-07-08T20:17:46;9;8.2;6
45112;PMS5003;30873;53.908;27.576;2023-07-08T20:22:46;8.3;7.8;5.7
45112;PMS5003;30873;53.908;27.576;2023-07-08T20:28:07;9.2;7.3;5.5
45112;PMS5003;30873;53.908;27.576;2023-07-08T20:33:02;8.8;7.8;5.7
45112;PMS5003;30873;53.908;27.576;2023-07-08T20:37:26;8.9;8.3;5.9
45112;PMS5003;30873;53.908;27.576;2023-07-08T20:42:32;9;8.4;5.9
45112;PMS5003;30873;53.908;27.576;2023-07-08T20:47:46;9.4;8.3;6
45112;PMS5003;30873;53.908;27.576;2023-07-08T20:52:47;10.8;9.8;7
45112;PMS5003;30873;53.908;27.576;2023-07-08T20:57:07;13.1;12.1;9.6
45112;PMS5003;30873;53.908;27.576;2023-07-08T21:02:10;12.8;12;9
45112;PMS5003;30873;53.908;27.576;2023-07-08T21:07:04;14.9;14.1;11.6
45112;PMS5003;30873;53.908;27.576;2023-07-08T21:12:05;20.9;19.6;16.8
45112;PMS5003;30873;53.908;27.576;2023-07-08T21:17:04;36;33.1;27.3
45112;PMS5003;30873;53.908;27.576;2023-07-08T21:23:05;36;32.6;26.6
45112;PMS5003;30873;53.908;27.576;2023-07-08T21:27:46;71.8;64.9;61.1
45112;PMS5003;30873;53.908;27.576;2023-07-08T21:33:04;33.8;31.4;26.7
45112;PMS5003;30873;53.908;27.576;2023-07-08T21:37:26;40.5;35.5;29.3
45112;PMS5003;30873;53.908;27.576;2023-07-08T21:42:05;43.9;39.2;34.8
45112;PMS5003;30873;53.908;27.576;2023-07-08T21:47:42;36.7;32.3;26.1
45112;PMS5003;30873;53.908;27.576;2023-07-08T21:52:16;33.8;30.4;24.6
45112;PMS5003;30873;53.908;27.576;2023-07-08T21:57:30;34.2;30.3;24.8
45112;PMS5003;30873;53.908;27.576;2023-07-08T22:02:49;9.7;8.8;5.8
45112;PMS5003;30873;53.908;27.576;2023-07-08T22:07:47;9.5;8.5;5.5
45112;PMS5003;30873;53.908;27.576;2023-07-08T22:12:12;8.5;8;5.6
45112;PMS5003;30873;53.908;27.576;2023-07-08T22:17:04;12.2;11.3;8.4
45112;PMS5003;30873;53.908;27.576;2023-07-08T22:23:06;8.6;8.2;5.8
45112;PMS5003;30873;53.908;27.576;2023-07-08T22:28:00;9.8;8.6;5.4
45112;PMS5003;30873;53.908;27.576;2023-07-08T22:32:30;9.9;9.1;5.8
45112;PMS5003;30873;53.908;27.576;2023-07-08T22:37:05;9.7;9;6
45112;PMS5003;30873;53.908;27.576;2023-07-08T22:43:04;10.8;9.1;5.7
45112;PMS5003;30873;53.908;27.576;2023-07-08T22:47:30;9.2;8.8;5.9
45112;PMS5003;30873;53.908;27.576;2023-07-08T22:52:28;9.8;9.3;6.2
45112;PMS5003;30873;53.908;27.576;2023-07-08T22:57:43;11.5;9.8;6.4
45112;PMS5003;30873;53.908;27.576;2023-07-08T23:02:46;9.5;8.9;6
45112;PMS5003;30873;53.908;27.576;2023-07-08T23:08:02;11.3;9.9;6.9
45112;PMS5003;30873;53.908;27.576;2023-07-08T23:12:26;10.9;10;7.6
45112;PMS5003;30873;53.908;27.576;2023-07-08T23:18:02;10.9;10.3;7
45112;PMS5003;30873;53.908;27.576;2023-07-08T23:22:07;11.7;10.2;7.1
45112;PMS5003;30873;53.908;27.576;2023-07-08T23:28:04;11.2;10.4;6.9
45112;PMS5003;30873;53.908;27.576;2023-07-08T23:32:40;10.9;9.9;6.7
45112;PMS5003;30873;53.908;27.576;2023-07-08T23:37:48;10.9;10.1;7.6
45112;PMS5003;30873;53.908;27.576;2023-07-08T23:42:46;11.2;10.2;7.4
45112;PMS5003;30873;53.908;27.576;2023-07-08T23:47:42;10.5;9.4;6.7
45112;PMS5003;30873;53.908;27.576;2023-07-08T23:52:46;10.9;10;6.6
45112;PMS5003;30873;53.908;27.576;2023-07-08T23:57:30;11.2;10;7
